Time;durP1;ratioP1;P1;durP2;ratioP2;P2;SDS_P1;SDS_P2;PMS_P1;PMS_P2;Temp;Humidity;BMP_temperature;BMP_pressure;BME280_temperature;BME280_humidity;BME280_pressure;Samples;Min_cycle;Max_cycle;Signal;HPM_P1;HPM_P2
2022/03/28 00:01:13;;;;;;;33.10;15.90;;;;;6.00;97214.00;;;;8379428;28;20219;-75
2022/03/28 00:05:16;;;;;;;32.10;15.43;;;;;5.90;97207.00;;;;8375529;28;20556;-75
2022/03/28 00:09:19;;;;;;;35.47;15.87;;;;;5.90;97207.00;;;;8378065;28;20248;-75
2022/03/28 00:13:22;;;;;;;32.30;15.60;;;;;5.80;97200.00;;;;8375427;28;20341;-75
2022/03/28 00:17:27;;;;;;;40.47;16.40;;;;;5.70;97186.00;;;;8383605;28;20225;-74
2022/03/28 00:21:30;;;;;;;33.57;15.17;;;;;5.60;97189.00;;;;8380209;28;20235;-75
2022/03/28 00:25:34;;;;;;;38.07;15.90;;;;;5.60;97187.00;;;;8373837;28;20755;-73
2022/03/28 00:29:37;;;;;;;34.77;15.87;;;;;5.50;97180.00;;;;8382130;28;20335;-74
2022/03/28 00:33:42;;;;;;;36.17;15.47;;;;;5.40;97182.00;;;;8378952;28;20232;-74
2022/03/28 00:37:45;;;;;;;34.20;14.70;;;;;5.30;97178.00;;;;8377250;28;20250;-74
2022/03/28 00:41:48;;;;;;;30.87;15.43;;;;;5.20;97162.00;;;;8375149;28;20224;-74
2022/03/28 00:45:51;;;;;;;36.80;16.77;;;;;5.10;97177.00;;;;8383264;28;20316;-75
2022/03/28 00:49:56;;;;;;;39.83;15.83;;;;;5.10;97167.00;;;;8368210;28;20671;-75
2022/03/28 00:54:01;;;;;;;32.47;14.83;;;;;5.10;97164.00;;;;8373999;28;20634;-74
2022/03/28 00:58:05;;;;;;;33.53;16.03;;;;;5.00;97159.00;;;;8373462;28;20388;-74
2022/03/28 01:02:08;;;;;;;33.67;16.00;;;;;5.00;97157.00;;;;8368878;28;20229;-75
2022/03/28 01:06:12;;;;;;;38.23;17.30;;;;;5.00;97150.00;;;;8368356;28;20221;-72
2022/03/28 01:10:16;;;;;;;37.00;16.77;;;;;5.00;97145.00;;;;8379561;28;20228;-74
2022/03/28 01:14:19;;;;;;;40.17;16.73;;;;;5.10;97150.00;;;;8377348;28;20321;-74
2022/03/28 01:18:23;;;;;;;37.97;16.97;;;;;5.20;97150.00;;;;8370850;28;20231;-74
2022/03/28 01:22:27;;;;;;;34.00;15.30;;;;;5.20;97142.00;;;;8381969;28;20679;-74
2022/03/28 01:26:31;;;;;;;33.70;15.53;;;;;5.20;97142.00;;;;8380869;28;20236;-75
2022/03/28 01:30:34;;;;;;;36.13;16.20;;;;;5.10;97138.00;;;;8378789;28;20241;-74
2022/03/28 01:34:37;;;;;;;36.37;15.90;;;;;5.10;97143.00;;;;8373195;28;20233;-73
2022/03/28 01:38:42;;;;;;;36.27;15.50;;;;;5.10;97135.00;;;;8376355;28;20242;-73
2022/03/28 01:42:48;;;;;;;33.93;15.50;;;;;5.00;97144.00;;;;8374438;28;20235;-75
2022/03/28 01:46:51;;;;;;;43.40;16.53;;;;;5.00;97131.00;;;;8375255;28;20232;-75
2022/03/28 01:50:55;;;;;;;37.37;16.50;;;;;4.90;97134.00;;;;8370482;28;20231;-75
2022/03/28 01:54:59;;;;;;;36.40;15.77;;;;;4.80;97128.00;;;;8378276;28;20279;-74
2022/03/28 01:59:02;;;;;;;35.80;16.30;;;;;4.60;97127.00;;;;8373618;28;20242;-73
2022/03/28 02:03:06;;;;;;;37.70;15.70;;;;;4.50;97128.00;;;;8375361;28;20247;-74
2022/03/28 02:07:09;;;;;;;33.17;15.47;;;;;4.30;97126.00;;;;8374071;28;20324;-74
2022/03/28 02:11:14;;;;;;;37.07;15.47;;;;;4.20;97122.00;;;;8373542;28;21025;-74
2022/03/28 02:15:18;;;;;;;37.07;15.53;;;;;4.20;97123.00;;;;8372859;28;20232;-74
2022/03/28 02:19:22;;;;;;;35.87;15.73;;;;;4.00;97123.00;;;;8368644;28;20225;-73
2022/03/28 02:23:25;;;;;;;36.30;15.77;;;;;4.00;97124.00;;;;8371103;28;20230;-73
2022/03/28 02:27:30;;;;;;;35.00;15.03;;;;;3.90;97128.00;;;;8368636;28;20235;-74
2022/03/28 02:31:34;;;;;;;39.07;15.67;;;;;3.90;97122.00;;;;8378374;28;20228;-74
2022/03/28 02:35:37;;;;;;;34.07;14.93;;;;;3.80;97128.00;;;;8379862;28;20330;-74
2022/03/28 02:39:40;;;;;;;36.67;15.50;;;;;3.70;97122.00;;;;8375958;28;20812;-75
2022/03/28 02:43:45;;;;;;;36.00;15.17;;;;;3.70;97122.00;;;;8378835;28;20235;-74
2022/03/28 02:47:48;;;;;;;37.30;15.53;;;;;3.70;97113.00;;;;8378357;28;20231;-73
2022/03/28 02:51:51;;;;;;;37.00;15.93;;;;;3.60;97104.00;;;;8375531;28;20258;-74
2022/03/28 02:55:54;;;;;;;39.60;16.57;;;;;3.60;97105.00;;;;8372003;28;20805;-75
2022/03/28 02:59:59;;;;;;;41.53;16.63;;;;;3.70;97105.00;;;;8376506;28;20222;-75
2022/03/28 03:04:02;;;;;;;33.33;14.77;;;;;3.80;97094.00;;;;8422507;22;20225;-74
2022/03/28 03:08:06;;;;;;;37.93;14.37;;;;;3.80;97103.00;;;;8368322;28;20251;-74
2022/03/28 03:12:10;;;;;;;38.33;15.03;;;;;3.80;97092.00;;;;8368148;28;20233;-74
2022/03/28 03:16:15;;;;;;;38.07;15.23;;;;;3.70;97089.00;;;;8372099;28;20232;-75
2022/03/28 03:20:19;;;;;;;40.73;16.93;;;;;3.60;97087.00;;;;8370435;28;20281;-75
2022/03/28 03:24:22;;;;;;;40.30;16.50;;;;;3.60;97080.00;;;;8363780;28;20250;-74
2022/03/28 03:28:25;;;;;;;40.93;16.63;;;;;3.70;97078.00;;;;8373384;28;20230;-73
2022/03/28 03:32:30;;;;;;;43.47;16.03;;;;;3.70;97075.00;;;;8376209;28;20242;-73
2022/03/28 03:36:33;;;;;;;37.40;14.33;;;;;3.60;97078.00;;;;8382985;28;20257;-74
2022/03/28 03:40:36;;;;;;;41.37;15.83;;;;;3.50;97068.00;;;;8371212;28;20225;-72
2022/03/28 03:44:40;;;;;;;38.80;16.27;;;;;3.40;97063.00;;;;8374763;28;20233;-73
2022/03/28 03:48:44;;;;;;;36.93;16.47;;;;;3.40;97062.00;;;;8375344;28;20759;-72
2022/03/28 03:52:50;;;;;;;41.30;16.20;;;;;3.50;97066.00;;;;8371257;28;20701;-73
2022/03/28 03:56:53;;;;;;;37.43;15.57;;;;;3.50;97066.00;;;;8380691;28;20234;-73
2022/03/28 04:00:56;;;;;;;38.17;15.23;;;;;3.40;97057.00;;;;8375937;28;20238;-72
2022/03/28 04:05:01;;;;;;;43.57;16.23;;;;;3.30;97055.00;;;;8348869;28;20262;-72
2022/03/28 04:09:04;;;;;;;40.97;16.23;;;;;3.20;97058.00;;;;8343810;28;20217;-70
2022/03/28 04:13:07;;;;;;;41.00;17.47;;;;;3.10;97043.00;;;;8340057;28;20706;-71
2022/03/28 04:17:10;;;;;;;38.40;17.27;;;;;3.10;97050.00;;;;8344842;28;20221;-70
2022/03/28 04:21:15;;;;;;;48.60;16.67;;;;;3.10;97052.00;;;;8335379;28;20233;-71
2022/03/28 04:25:18;;;;;;;43.80;16.93;;;;;3.10;97055.00;;;;8339666;28;20240;-70
2022/03/28 04:29:21;;;;;;;40.50;16.53;;;;;3.10;97052.00;;;;8347049;28;20263;-70
2022/03/28 04:33:25;;;;;;;36.83;14.80;;;;;3.10;97060.00;;;;8339440;28;20220;-71
2022/03/28 04:37:33;;;;;;;41.80;16.13;;;;;3.00;97052.00;;;;8342157;28;20927;-70
2022/03/28 04:41:36;;;;;;;47.57;16.47;;;;;2.90;97039.00;;;;8342347;28;20216;-71
2022/03/28 04:45:39;;;;;;;45.50;15.90;;;;;2.70;97041.00;;;;8339131;28;21078;-70
2022/03/28 04:49:43;;;;;;;47.00;16.67;;;;;2.70;97039.00;;;;8333476;28;20225;-70
2022/03/28 04:53:47;;;;;;;38.63;15.63;;;;;2.60;97043.00;;;;8334206;28;20233;-72
2022/03/28 04:57:50;;;;;;;49.30;16.23;;;;;2.60;97051.00;;;;8334795;28;20350;-70
2022/03/28 05:01:54;;;;;;;62.93;16.47;;;;;2.60;97050.00;;;;8344263;28;20223;-70
2022/03/28 05:05:57;;;;;;;49.03;18.13;;;;;2.50;97046.00;;;;8339592;28;20241;-70
2022/03/28 05:10:02;;;;;;;53.97;18.57;;;;;2.50;97049.00;;;;8337904;28;20225;-70
2022/03/28 05:14:05;;;;;;;57.93;17.83;;;;;2.60;97053.00;;;;8336284;28;20307;-70
2022/03/28 05:18:08;;;;;;;49.13;17.60;;;;;2.60;97053.00;;;;8346284;28;20228;-70
2022/03/28 05:22:12;;;;;;;45.20;15.67;;;;;2.60;97041.00;;;;8338085;28;20239;-70
2022/03/28 05:26:16;;;;;;;42.37;16.50;;;;;2.70;97053.00;;;;8339011;28;20298;-69
2022/03/28 05:30:20;;;;;;;39.87;16.07;;;;;2.70;97037.00;;;;8329243;28;20237;-70
2022/03/28 05:34:23;;;;;;;48.47;16.20;;;;;2.70;97045.00;;;;8333980;28;20227;-69
2022/03/28 05:38:26;;;;;;;42.70;16.93;;;;;2.80;97040.00;;;;8344888;28;21556;-69
2022/03/28 05:42:31;;;;;;;51.33;16.00;;;;;3.00;97043.00;;;;8341148;28;20228;-70
2022/03/28 05:46:34;;;;;;;47.87;18.17;;;;;3.10;97045.00;;;;8338023;28;21127;-70
2022/03/28 05:50:37;;;;;;;52.60;18.53;;;;;3.30;97045.00;;;;8342879;28;20304;-69
2022/03/28 05:54:41;;;;;;;48.70;17.33;;;;;3.60;97041.00;;;;8347677;28;20243;-70
2022/03/28 05:58:45;;;;;;;39.87;16.93;;;;;3.80;97040.00;;;;8340844;28;20222;-70
2022/03/28 06:02:48;;;;;;;42.47;16.60;;;;;4.00;97049.00;;;;8344605;28;20236;-70
2022/03/28 06:06:51;;;;;;;39.97;16.47;;;;;4.20;97045.00;;;;8335070;28;20230;-71
2022/03/28 06:10:55;;;;;;;36.70;15.37;;;;;4.40;97041.00;;;;8324245;28;20232;-71
2022/03/28 06:15:01;;;;;;;36.57;15.17;;;;;4.50;97051.00;;;;8337554;28;20232;-70
2022/03/28 06:19:04;;;;;;;36.50;15.80;;;;;4.60;97046.00;;;;8333990;28;20253;-71
2022/03/28 06:23:09;;;;;;;33.97;14.90;;;;;4.80;97046.00;;;;8339060;28;20431;-70
2022/03/28 06:27:13;;;;;;;33.40;14.47;;;;;5.00;97046.00;;;;8334193;28;20758;-70
2022/03/28 06:31:17;;;;;;;37.80;15.63;;;;;5.20;97038.00;;;;8340440;28;20238;-71
2022/03/28 06:35:21;;;;;;;38.67;15.87;;;;;5.40;97044.00;;;;8343529;28;20229;-71
2022/03/28 06:39:24;;;;;;;37.00;15.33;;;;;5.60;97051.00;;;;8336851;28;20675;-71
2022/03/28 06:43:28;;;;;;;34.97;15.73;;;;;5.80;97042.00;;;;8342772;28;20577;-71
2022/03/28 06:47:33;;;;;;;33.17;15.97;;;;;6.00;97046.00;;;;8341397;28;20243;-71
2022/03/28 06:51:36;;;;;;;32.63;15.90;;;;;6.30;97044.00;;;;8337481;28;20228;-72
2022/03/28 06:55:40;;;;;;;35.07;15.57;;;;;6.50;97042.00;;;;8336906;28;20318;-73
2022/03/28 06:59:43;;;;;;;36.33;15.87;;;;;6.80;97036.00;;;;8342068;28;20234;-72
2022/03/28 07:03:48;;;;;;;36.80;16.93;;;;;7.10;97037.00;;;;8341797;28;20237;-73
2022/03/28 07:07:51;;;;;;;36.07;16.93;;;;;7.40;97036.00;;;;8337883;28;20711;-73
2022/03/28 07:11:54;;;;;;;36.17;16.90;;;;;7.80;97038.00;;;;8338966;28;20287;-73
2022/03/28 07:15:58;;;;;;;33.60;17.13;;;;;8.20;97040.00;;;;8341133;28;20229;-73
2022/03/28 07:20:03;;;;;;;43.80;19.23;;;;;8.50;97037.00;;;;8332991;28;20671;-73
2022/03/28 07:24:07;;;;;;;40.20;18.93;;;;;8.80;97039.00;;;;8334111;28;20231;-74
2022/03/28 07:28:12;;;;;;;36.33;19.03;;;;;9.20;97041.00;;;;8335343;28;20267;-74
2022/03/28 07:32:15;;;;;;;38.17;20.20;;;;;9.70;97050.00;;;;8333735;28;20224;-74
2022/03/28 07:36:23;;;;;;;40.03;19.47;;;;;10.10;97044.00;;;;8337346;28;20228;-74
2022/03/28 07:40:26;;;;;;;30.77;17.67;;;;;10.40;97037.00;;;;8329084;28;20239;-74
2022/03/28 07:44:29;;;;;;;31.83;17.03;;;;;10.70;97042.00;;;;8331236;28;20231;-75
2022/03/28 07:48:33;;;;;;;32.90;17.80;;;;;11.00;97042.00;;;;8338614;28;20240;-75
2022/03/28 07:52:38;;;;;;;29.43;16.77;;;;;11.40;97034.00;;;;8331197;28;20231;-74
2022/03/28 07:56:41;;;;;;;29.63;15.87;;;;;11.60;97026.00;;;;8328104;28;20236;-75
2022/03/28 08:00:44;;;;;;;29.73;16.97;;;;;12.00;97024.00;;;;8333325;28;20231;-75
2022/03/28 08:04:47;;;;;;;25.10;15.40;;;;;12.40;97028.00;;;;8331298;28;20254;-75
2022/03/28 08:08:51;;;;;;;28.53;15.53;;;;;12.90;97029.00;;;;8339431;28;20720;-75
2022/03/28 08:12:55;;;;;;;24.33;14.70;;;;;13.40;97017.00;;;;8332929;28;20304;-76
2022/03/28 08:16:58;;;;;;;29.45;15.80;;;;;13.80;97023.00;;;;8345340;28;20319;-75
2022/03/28 08:21:01;;;;;;;24.17;15.15;;;;;14.30;97027.00;;;;8339648;28;20282;-75
2022/03/28 08:25:08;;;;;;;27.38;15.35;;;;;14.90;97019.00;;;;8344477;28;20267;-75
2022/03/28 08:29:11;;;;;;;25.85;14.50;;;;;15.50;97016.00;;;;8345628;28;20238;-75
2022/03/28 08:33:15;;;;;;;23.38;14.30;;;;;15.90;97010.00;;;;8333101;28;20227;-76
2022/03/28 08:37:18;;;;;;;23.02;13.63;;;;;16.30;97017.00;;;;8341080;28;20564;-75
2022/03/28 08:41:26;;;;;;;24.50;14.45;;;;;16.70;97010.00;;;;8333283;28;20240;-76
2022/03/28 08:45:29;;;;;;;24.10;14.27;;;;;17.10;97015.00;;;;8334401;28;20224;-75
2022/03/28 08:49:35;;;;;;;21.33;13.27;;;;;17.80;97010.00;;;;8345298;28;20217;-75
2022/03/28 08:53:39;;;;;;;27.55;13.35;;;;;18.50;97007.00;;;;8342836;28;20232;-75
2022/03/28 08:57:44;;;;;;;21.58;12.75;;;;;19.30;96999.00;;;;8340418;28;20223;-75
2022/03/28 09:01:49;;;;;;;21.52;13.07;;;;;20.00;97009.00;;;;8342524;28;20232;-74
2022/03/28 09:05:52;;;;;;;22.15;13.50;;;;;20.60;97002.00;;;;8339487;28;20311;-75
2022/03/28 09:09:59;;;;;;;20.85;13.02;;;;;21.10;96999.00;;;;8343921;28;20215;-75
2022/03/28 09:14:05;;;;;;;22.88;13.02;;;;;21.80;96996.00;;;;8342654;28;20815;-76
2022/03/28 09:18:20;;;;;;;25.00;13.75;;;;;22.10;96993.00;;;;8339948;28;20237;-76
2022/03/28 09:22:24;;;;;;;18.48;12.60;;;;;22.40;96991.00;;;;8341320;28;20216;-76
2022/03/28 09:26:28;;;;;;;22.10;13.40;;;;;23.00;96980.00;;;;8343436;28;20228;-76
2022/03/28 09:30:33;;;;;;;20.55;12.63;;;;;23.20;96980.00;;;;8342922;28;20220;-76
2022/03/28 09:34:36;;;;;;;24.77;12.10;;;;;23.30;96972.00;;;;8341382;28;20673;-76
2022/03/28 09:38:55;;;;;;;18.90;11.68;;;;;23.70;96971.00;;;;8338334;28;20224;-76
2022/03/28 09:42:59;;;;;;;20.42;12.07;;;;;24.00;96964.00;;;;8335898;28;23852;-76
2022/03/28 09:47:09;;;;;;;18.45;11.77;;;;;24.10;96961.00;;;;8341049;28;20600;-77
2022/03/28 09:51:12;;;;;;;21.42;11.77;;;;;24.40;96957.00;;;;8340580;28;20329;-77
2022/03/28 09:55:15;;;;;;;22.08;12.23;;;;;24.80;96948.00;;;;8345746;28;20232;-76
2022/03/28 09:59:21;;;;;;;18.17;10.10;;;;;24.80;96947.00;;;;8344464;28;20254;-76
2022/03/28 10:03:27;;;;;;;18.08;8.88;;;;;24.30;96933.00;;;;8343031;28;20237;-76
2022/03/28 10:07:32;;;;;;;20.15;9.90;;;;;24.00;96927.00;;;;8338581;28;20229;-75
2022/03/28 10:11:37;;;;;;;19.65;9.15;;;;;23.90;96924.00;;;;8335419;28;20240;-76
2022/03/28 10:15:40;;;;;;;20.42;8.50;;;;;23.90;96919.00;;;;8334992;28;20235;-76
2022/03/28 10:19:45;;;;;;;15.95;8.70;;;;;23.90;96921.00;;;;8340296;28;20234;-75
2022/03/28 10:24:04;;;;;;;18.63;9.45;;;;;23.70;96903.00;;;;8338486;28;20315;-76
2022/03/28 10:28:09;;;;;;;19.77;10.30;;;;;23.40;96906.00;;;;8336711;28;20311;-75
2022/03/28 10:32:15;;;;;;;16.02;9.20;;;;;23.10;96894.00;;;;8333715;28;20243;-75
2022/03/28 10:36:27;;;;;;;20.23;9.77;;;;;23.00;96892.00;;;;8338730;28;20233;-76
2022/03/28 10:40:32;;;;;;;18.63;9.32;;;;;23.10;96891.00;;;;8335075;28;20263;-75
2022/03/28 10:45:02;;;;;;;14.48;8.30;;;;;23.20;96880.00;;;;8332091;28;20295;-75
2022/03/28 10:49:07;;;;;;;14.32;7.75;;;;;23.20;96876.00;;;;8326002;28;20229;-75
2022/03/28 10:53:14;;;;;;;14.82;7.78;;;;;23.50;96874.00;;;;8337829;28;20262;-75
2022/03/28 10:57:27;;;;;;;15.57;8.65;;;;;23.60;96862.00;;;;8338422;28;20244;-75
2022/03/28 11:01:33;;;;;;;13.05;7.30;;;;;23.70;96852.00;;;;8330202;28;20258;-76
2022/03/28 11:05:54;;;;;;;16.02;8.07;;;;;23.70;96848.00;;;;8341595;28;20236;-76
2022/03/28 11:10:05;;;;;;;14.82;6.93;;;;;23.60;96849.00;;;;8341138;28;20308;-76
2022/03/28 11:14:10;;;;;;;12.45;7.45;;;;;23.80;96832.00;;;;8333603;28;20312;-76
2022/03/28 11:18:14;;;;;;;14.70;7.35;;;;;23.90;96831.00;;;;8338414;28;20255;-76
2022/03/28 11:22:17;;;;;;;10.65;8.05;;;;;23.80;96821.00;;;;8333953;28;20231;-75
2022/03/28 11:26:23;;;;;;;11.20;7.13;;;;;24.00;96805.00;;;;8333757;28;20800;-76
2022/03/28 11:30:26;;;;;;;13.68;7.60;;;;;24.10;96808.00;;;;8329668;28;20232;-76
2022/03/28 11:34:30;;;;;;;13.85;7.32;;;;;23.90;96801.00;;;;8333999;28;20290;-75
2022/03/28 11:38:37;;;;;;;12.82;8.00;;;;;23.80;96794.00;;;;8329676;28;20232;-76
2022/03/28 11:42:49;;;;;;;14.00;8.02;;;;;23.80;96789.00;;;;8331222;28;20236;-76
2022/03/28 11:46:57;;;;;;;16.23;8.20;;;;;23.80;96778.00;;;;8337808;28;20238;-76
2022/03/28 11:51:14;;;;;;;12.25;8.60;;;;;23.50;96773.00;;;;8339576;28;20585;-76
2022/03/28 11:55:25;;;;;;;19.00;8.23;;;;;23.40;96775.00;;;;8344355;28;20248;-75
2022/03/28 11:59:30;;;;;;;13.20;7.40;;;;;23.20;96757.00;;;;8346085;28;20236;-76
2022/03/28 12:03:34;;;;;;;13.52;7.90;;;;;23.10;96752.00;;;;8342445;28;20236;-75
2022/03/28 12:07:37;;;;;;;10.88;7.53;;;;;22.80;96739.00;;;;8345587;28;20247;-76
2022/03/28 12:11:40;;;;;;;11.77;7.57;;;;;22.60;96725.00;;;;8342627;28;20635;-76
2022/03/28 12:15:46;;;;;;;12.35;7.35;;;;;22.60;96714.00;;;;8347245;28;20220;-76
2022/03/28 12:20:04;;;;;;;11.18;6.30;;;;;22.60;96716.00;;;;8336102;28;20233;-76
2022/03/28 12:24:07;;;;;;;15.85;6.20;;;;;22.60;96702.00;;;;8338925;28;20878;-76
2022/03/28 12:28:14;;;;;;;12.73;6.32;;;;;22.70;96692.00;;;;8346247;28;20741;-76
2022/03/28 12:32:19;;;;;;;11.52;6.40;;;;;22.70;96685.00;;;;8345307;28;20600;-76
2022/03/28 12:36:28;;;;;;;11.57;6.82;;;;;22.70;96687.00;;;;8342309;28;20228;-77
2022/03/28 12:40:32;;;;;;;13.02;6.10;;;;;22.60;96675.00;;;;8337218;28;20240;-76
2022/03/28 12:44:36;;;;;;;11.40;6.88;;;;;22.60;96671.00;;;;8333624;28;20225;-75
2022/03/28 12:48:43;;;;;;;12.73;7.00;;;;;22.40;96660.00;;;;8344639;28;20232;-75
2022/03/28 12:52:46;;;;;;;14.90;6.82;;;;;22.50;96648.00;;;;8347076;28;20235;-75
2022/03/28 12:56:51;;;;;;;12.73;7.13;;;;;22.60;96643.00;;;;8337618;28;20225;-75
2022/03/28 13:01:05;;;;;;;15.13;6.50;;;;;22.60;96638.00;;;;8337158;28;20233;-75
2022/03/28 13:05:16;;;;;;;13.98;7.10;;;;;22.40;96632.00;;;;8342644;28;20216;-76
2022/03/28 13:09:21;;;;;;;11.73;7.13;;;;;22.40;96619.00;;;;8348734;28;20307;-75
2022/03/28 13:13:34;;;;;;;14.68;6.70;;;;;22.40;96614.00;;;;8338876;28;20320;-75
2022/03/28 13:17:38;;;;;;;14.38;7.07;;;;;22.60;96606.00;;;;8339109;28;20236;-76
2022/03/28 13:21:43;;;;;;;15.07;8.00;;;;;22.60;96601.00;;;;8342867;28;20225;-75
2022/03/28 13:25:46;;;;;;;16.40;8.32;;;;;22.70;96601.00;;;;8340073;28;20250;-76
2022/03/28 13:29:49;;;;;;;18.83;8.00;;;;;22.70;96576.00;;;;8341884;28;20240;-77
2022/03/28 13:33:52;;;;;;;18.13;9.05;;;;;22.80;96571.00;;;;8339227;28;20230;-76
2022/03/28 13:37:58;;;;;;;17.70;8.23;;;;;22.80;96560.00;;;;8339285;28;20310;-75
2022/03/28 13:42:02;;;;;;;14.48;8.15;;;;;22.80;96574.00;;;;8338967;28;20250;-75
2022/03/28 13:46:09;;;;;;;19.88;8.88;;;;;22.80;96563.00;;;;8338476;28;20229;-76
2022/03/28 13:50:12;;;;;;;17.67;8.70;;;;;22.70;96556.00;;;;8328501;28;20807;-75
2022/03/28 13:54:37;;;;;;;16.52;9.00;;;;;22.80;96557.00;;;;8341595;28;20632;-76
2022/03/28 13:58:41;;;;;;;18.65;9.77;;;;;22.80;96543.00;;;;8333372;28;20577;-76
2022/03/28 14:02:44;;;;;;;21.95;10.38;;;;;23.20;96539.00;;;;8340596;28;20238;-75
2022/03/28 14:06:47;;;;;;;19.85;9.63;;;;;23.60;96529.00;;;;8341995;28;20237;-75
2022/03/28 14:10:52;;;;;;;17.48;9.32;;;;;23.70;96519.00;;;;8327809;28;21511;-75
2022/03/28 14:14:55;;;;;;;19.58;9.48;;;;;23.90;96516.00;;;;8332010;28;20226;-77
2022/03/28 14:18:58;;;;;;;19.02;9.48;;;;;23.90;96510.00;;;;8329418;28;20233;-75
2022/03/28 14:23:02;;;;;;;17.73;9.65;;;;;24.00;96504.00;;;;8334132;28;20233;-75
2022/03/28 14:27:07;;;;;;;19.20;9.35;;;;;24.10;96509.00;;;;8340139;28;20225;-74
2022/03/28 14:31:14;;;;;;;19.60;9.35;;;;;24.30;96491.00;;;;8345096;28;20236;-75
2022/03/28 14:35:18;;;;;;;17.05;8.95;;;;;24.20;96502.00;;;;8340877;28;20632;-74
2022/03/28 14:39:21;;;;;;;22.75;10.60;;;;;24.10;96492.00;;;;8340896;28;20235;-75
2022/03/28 14:43:25;;;;;;;18.80;10.68;;;;;23.90;96491.00;;;;8341795;28;20228;-75
2022/03/28 14:47:29;;;;;;;20.48;10.15;;;;;24.00;96484.00;;;;8345138;28;20228;-75
2022/03/28 14:51:32;;;;;;;19.25;9.57;;;;;24.20;96485.00;;;;8339245;28;20224;-75
2022/03/28 14:55:35;;;;;;;23.83;11.68;;;;;24.10;96470.00;;;;8337719;28;20234;-76
2022/03/28 14:59:40;;;;;;;21.00;10.57;;;;;24.10;96472.00;;;;8340009;28;20221;-76
2022/03/28 15:03:43;;;;;;;25.48;12.43;;;;;24.00;96472.00;;;;8342097;28;20327;-75
2022/03/28 15:07:46;;;;;;;24.92;13.13;;;;;23.60;96452.00;;;;8342526;28;20274;-76
2022/03/28 15:11:51;;;;;;;21.85;11.13;;;;;23.50;96454.00;;;;8338114;28;20240;-74
2022/03/28 15:15:56;;;;;;;23.40;11.93;;;;;23.40;96451.00;;;;8337748;28;20699;-75
2022/03/28 15:19:59;;;;;;;21.83;11.88;;;;;23.30;96441.00;;;;8336458;28;20940;-75
2022/03/28 15:24:02;;;;;;;27.30;12.90;;;;;23.30;96443.00;;;;8341147;28;20235;-75
2022/03/28 15:28:06;;;;;;;22.52;12.00;;;;;23.20;96441.00;;;;8332951;28;20857;-76
2022/03/28 15:32:11;;;;;;;23.17;11.73;;;;;23.00;96435.00;;;;8327463;28;20236;-76
2022/03/28 15:36:14;;;;;;;22.23;11.60;;;;;23.00;96435.00;;;;8335497;28;20271;-77
2022/03/28 15:40:18;;;;;;;28.95;12.13;;;;;22.90;96430.00;;;;8344509;28;20227;-77
2022/03/28 15:44:22;;;;;;;22.45;12.00;;;;;23.00;96424.00;;;;8323786;28;20248;-76
2022/03/28 15:48:27;;;;;;;23.23;11.15;;;;;23.20;96419.00;;;;8335417;28;20267;-76
2022/03/28 15:52:30;;;;;;;25.20;11.95;;;;;23.30;96415.00;;;;8342410;28;20814;-76
2022/03/28 15:56:34;;;;;;;24.00;11.60;;;;;23.20;96409.00;;;;8339638;28;20242;-77
2022/03/28 16:00:42;;;;;;;23.55;11.93;;;;;23.30;96411.00;;;;8340604;28;20220;-76
2022/03/28 16:04:46;;;;;;;21.73;10.85;;;;;23.30;96401.00;;;;8331212;28;20225;-76
2022/03/28 16:08:50;;;;;;;20.60;11.10;;;;;23.30;96397.00;;;;8337490;28;20224;-76
2022/03/28 16:12:53;;;;;;;17.05;10.35;;;;;23.10;96406.00;;;;8335543;28;20630;-76
2022/03/28 16:16:58;;;;;;;19.50;10.20;;;;;23.00;96391.00;;;;8339599;28;20224;-76
2022/03/28 16:21:04;;;;;;;20.92;10.65;;;;;23.10;96394.00;;;;8339924;28;20282;-76
2022/03/28 16:25:08;;;;;;;19.42;10.38;;;;;23.00;96384.00;;;;8332974;28;20652;-76
2022/03/28 16:29:11;;;;;;;21.92;10.07;;;;;23.00;96382.00;;;;8339740;28;20221;-76
2022/03/28 16:33:15;;;;;;;19.08;10.15;;;;;22.80;96376.00;;;;8341434;28;21719;-76
2022/03/28 16:37:19;;;;;;;17.90;9.77;;;;;22.40;96371.00;;;;8341138;28;20308;-74
2022/03/28 16:41:25;;;;;;;21.50;9.50;;;;;22.00;96374.00;;;;8344273;28;20319;-75
2022/03/28 16:45:29;;;;;;;17.60;9.60;;;;;21.70;96370.00;;;;8342839;28;20746;-76
2022/03/28 16:49:33;;;;;;;18.77;9.45;;;;;21.40;96367.00;;;;8336054;28;20236;-75
2022/03/28 16:53:37;;;;;;;17.63;9.43;;;;;21.10;96373.00;;;;8347878;28;20225;-75
2022/03/28 16:57:42;;;;;;;27.27;10.45;;;;;20.80;96372.00;;;;8342611;28;20741;-75
2022/03/28 17:01:45;;;;;;;21.17;9.80;;;;;20.60;96374.00;;;;8339421;28;20232;-75
2022/03/28 17:05:49;;;;;;;18.80;8.85;;;;;20.20;96362.00;;;;8330675;28;20332;-74
2022/03/28 17:09:53;;;;;;;17.00;9.68;;;;;19.70;96355.00;;;;8335241;28;20243;-74
2022/03/28 17:13:56;;;;;;;18.25;9.40;;;;;19.10;96348.00;;;;8326686;28;20998;-75
2022/03/28 17:18:00;;;;;;;19.33;8.75;;;;;18.50;96344.00;;;;8346221;28;20235;-75
2022/03/28 17:22:03;;;;;;;20.42;9.20;;;;;17.80;96352.00;;;;8338364;28;20251;-75
2022/03/28 17:26:08;;;;;;;17.33;9.82;;;;;17.10;96343.00;;;;8345490;28;20229;-75
2022/03/28 17:30:11;;;;;;;15.63;9.02;;;;;16.50;96348.00;;;;8346609;28;20225;-75
2022/03/28 17:34:17;;;;;;;19.15;8.30;;;;;15.90;96347.00;;;;8345441;28;20259;-75
2022/03/28 17:38:21;;;;;;;20.27;10.23;;;;;15.40;96338.00;;;;8344199;28;20228;-75
2022/03/28 17:42:25;;;;;;;22.90;10.02;;;;;14.90;96344.00;;;;8342669;28;20220;-74
2022/03/28 17:46:28;;;;;;;20.70;10.20;;;;;14.40;96331.00;;;;8343612;28;20227;-74
2022/03/28 17:50:32;;;;;;;20.90;9.55;;;;;14.00;96333.00;;;;8342693;28;20226;-74
2022/03/28 17:54:36;;;;;;;22.13;9.45;;;;;13.60;96335.00;;;;8342143;28;20232;-74
2022/03/28 17:58:41;;;;;;;18.50;9.40;;;;;13.20;96328.00;;;;8341980;28;20335;-74
2022/03/28 18:02:44;;;;;;;23.55;9.48;;;;;12.90;96333.00;;;;8333161;28;20236;-74
2022/03/28 18:06:48;;;;;;;19.08;9.93;;;;;12.70;96335.00;;;;8345332;28;20223;-74
2022/03/28 18:10:51;;;;;;;24.33;10.90;;;;;12.50;96338.00;;;;8330146;28;20227;-74
2022/03/28 18:14:56;;;;;;;27.38;10.32;;;;;12.40;96334.00;;;;8340094;28;20236;-73
2022/03/28 18:18:59;;;;;;;19.10;10.05;;;;;12.30;96327.00;;;;8343853;28;20224;-74
2022/03/28 18:23:02;;;;;;;21.38;9.63;;;;;12.10;96334.00;;;;8341726;28;20667;-74
2022/03/28 18:27:06;;;;;;;23.07;9.60;;;;;11.90;96337.00;;;;8330656;28;20230;-74
2022/03/28 18:31:16;;;;;;;28.40;10.70;;;;;11.70;96327.00;;;;8337200;28;20247;-74
2022/03/28 18:35:20;;;;;;;25.83;10.90;;;;;11.60;96333.00;;;;8335389;28;20218;-73
2022/03/28 18:39:23;;;;;;;25.15;11.07;;;;;11.40;96340.00;;;;8333340;28;20252;-73
2022/03/28 18:43:26;;;;;;;24.73;10.47;;;;;11.20;96335.00;;;;8336680;28;20227;-73
2022/03/28 18:47:32;;;;;;;25.25;10.50;;;;;11.10;96335.00;;;;8338974;28;20234;-74
2022/03/28 18:51:35;;;;;;;22.75;10.82;;;;;11.00;96331.00;;;;8335264;28;20259;-73
2022/03/28 18:55:38;;;;;;;23.25;10.52;;;;;10.90;96332.00;;;;8336658;28;20622;-73
2022/03/28 18:59:41;;;;;;;24.07;10.43;;;;;10.80;96321.00;;;;8333616;28;20230;-73
2022/03/28 19:03:46;;;;;;;25.63;9.23;;;;;10.70;96325.00;;;;8334963;28;20236;-73
2022/03/28 19:07:51;;;;;;;25.10;10.03;;;;;10.50;96324.00;;;;8331352;28;20229;-73
2022/03/28 19:11:54;;;;;;;23.17;9.57;;;;;10.40;96327.00;;;;8337641;28;20232;-73
2022/03/28 19:15:57;;;;;;;20.13;10.00;;;;;10.20;96330.00;;;;8339478;28;20322;-74
2022/03/28 19:20:04;;;;;;;22.83;9.87;;;;;10.20;96320.00;;;;8346563;28;20852;-74
2022/03/28 19:24:08;;;;;;;20.47;9.37;;;;;10.20;96327.00;;;;8345783;28;20221;-74
2022/03/28 19:28:13;;;;;;;20.97;10.70;;;;;10.10;96324.00;;;;8334990;28;20946;-73
2022/03/28 19:32:17;;;;;;;26.03;9.60;;;;;10.00;96320.00;;;;8332833;28;20331;-73
2022/03/28 19:36:21;;;;;;;26.40;10.87;;;;;9.80;96315.00;;;;8334486;28;20245;-73
2022/03/28 19:40:25;;;;;;;22.93;10.77;;;;;9.70;96314.00;;;;8329704;28;20240;-74
2022/03/28 19:44:29;;;;;;;19.83;9.83;;;;;9.60;96302.00;;;;8335042;28;20233;-73
2022/03/28 19:48:32;;;;;;;25.40;9.60;;;;;9.40;96294.00;;;;8339249;28;20709;-73
2022/03/28 19:52:42;;;;;;;24.03;10.60;;;;;9.30;96289.00;;;;8345545;28;20880;-73
2022/03/28 19:56:45;;;;;;;25.53;11.40;;;;;9.10;96286.00;;;;8343143;28;20252;-73
2022/03/28 20:00:49;;;;;;;22.07;10.00;;;;;9.00;96282.00;;;;8342344;28;20282;-73
2022/03/28 20:04:53;;;;;;;22.17;10.37;;;;;8.90;96283.00;;;;8339164;28;20711;-73